Terminal Aerodrome Forecast
Issued by NWS

Home | Current Version | Previous Version | Text Only | Print | Product List | Glossary On
Versions: 1 2 3 4 5 6 7 8 9 10 11 12 13 14 15 16
000
FTUS45 KFGZ 271224 AAA
TAFGCN
TAF AMD
KGCN 271224Z 2712/2812 VRB05KT 4SM -SHRA FEW007 BKN020 OVC030
      TEMPO 2712/2714 VRB15G20KT 2SM SHRA BR BKN007
     FM271800 22006KT P6SM SCT050 BKN080
      TEMPO 2719/2723 VRB10G20KT 5SM -TSRA BKN040CB
     FM280200 VRB05KT P6SM SCT060=

USA.gov is the U.S. government's official web portal to all federal, state and local government web resources and services.